createdAt,value
2022-08-17T00:03:04.372Z,98557.61
2022-08-17T00:06:00.711Z,98552.08
2022-08-17T00:08:55.470Z,98549.88
2022-08-17T00:12:41.774Z,98543.73
2022-08-17T00:15:10.411Z,98543.05
2022-08-17T00:18:03.087Z,98545.38
2022-08-17T00:20:48.417Z,98547.79
2022-08-17T00:23:44.358Z,98552.00
2022-08-17T00:26:45.101Z,98546.23
2022-08-17T00:29:37.825Z,98549.08
2022-08-17T00:33:15.073Z,98552.85
2022-08-17T00:35:48.131Z,98555.38
2022-08-17T00:38:42.271Z,98555.86
2022-08-17T00:41:28.479Z,98555.40
2022-08-17T00:44:12.993Z,98553.84
2022-08-17T00:47:05.257Z,98556.72
2022-08-17T00:49:44.453Z,98558.71
2022-08-17T00:52:28.117Z,98556.73
2022-08-17T00:55:11.560Z,98558.20
2022-08-17T00:58:06.840Z,98557.59
2022-08-17T01:00:53.972Z,98556.07
2022-08-17T01:03:49.125Z,98561.46
2022-08-17T01:06:28.407Z,98557.67
2022-08-17T01:09:22.738Z,98556.86
2022-08-17T01:12:15.252Z,98563.46
2022-08-17T01:15:01.536Z,98563.77
2022-08-17T01:17:38.643Z,98563.75
2022-08-17T01:20:31.187Z,98567.90
2022-08-17T01:23:22.438Z,98568.27
2022-08-17T01:26:02.934Z,98565.34
2022-08-17T01:28:54.829Z,98566.03
2022-08-17T01:31:36.245Z,98561.76
2022-08-17T01:34:42.984Z,98560.70
2022-08-17T01:37:22.046Z,98558.52
2022-08-17T01:40:27.321Z,98559.29
2022-08-17T01:43:24.311Z,98558.34
2022-08-17T01:46:06.842Z,98560.67
2022-08-17T01:49:02.972Z,98557.64
2022-08-17T01:51:56.270Z,98557.69
2022-08-17T01:54:50.267Z,98556.56
2022-08-17T01:57:45.677Z,98559.20
2022-08-17T02:00:59.654Z,98559.92
2022-08-17T02:04:00.943Z,98560.20
2022-08-17T02:06:54.689Z,98566.55
2022-08-17T02:09:31.540Z,98567.77
2022-08-17T02:12:37.839Z,98565.38
2022-08-17T02:15:20.480Z,98566.98
2022-08-17T02:18:15.005Z,98565.73
2022-08-17T02:21:08.283Z,98564.58
2022-08-17T02:24:00.571Z,98560.61
2022-08-17T02:26:51.869Z,98562.00
2022-08-17T02:29:48.031Z,98566.68
2022-08-17T02:32:31.277Z,98563.36
2022-08-17T02:35:28.419Z,98565.69
2022-08-17T02:38:27.971Z,98567.77
2022-08-17T02:41:21.541Z,98570.65
2022-08-17T02:44:39.418Z,98571.85
2022-08-17T02:47:29.185Z,98575.38
2022-08-17T02:50:24.335Z,98578.34
2022-08-17T02:53:16.733Z,98575.16
2022-08-17T02:56:09.515Z,98573.59
2022-08-17T02:59:01.662Z,98571.95
2022-08-17T03:01:53.931Z,98572.27
2022-08-17T03:04:49.682Z,98575.88
2022-08-17T03:07:23.714Z,98575.26
2022-08-17T03:10:17.659Z,98576.21
2022-08-17T03:13:09.217Z,98582.10
2022-08-17T03:16:01.465Z,98584.52
2022-08-17T03:18:54.915Z,98584.36
2022-08-17T03:21:46.984Z,98586.25
2022-08-17T03:24:47.672Z,98585.10
2022-08-17T03:27:48.701Z,98591.45
2022-08-17T03:30:44.004Z,98597.25
2022-08-17T03:33:24.976Z,98597.36
2022-08-17T03:36:20.303Z,98602.84
2022-08-17T03:39:14.052Z,98599.27
2022-08-17T03:41:48.107Z,98601.38
2022-08-17T03:44:40.438Z,98607.30
2022-08-17T03:48:05.370Z,98610.91
2022-08-17T03:51:16.726Z,98609.63
2022-08-17T03:54:27.979Z,98608.95
2022-08-17T03:57:06.192Z,98610.88
2022-08-17T03:59:58.832Z,98612.20
2022-08-17T04:02:45.141Z,98615.11
2022-08-17T04:05:37.674Z,98615.71
2022-08-17T04:08:30.263Z,98616.30
2022-08-17T04:11:16.104Z,98619.45
2022-08-17T04:14:10.658Z,98624.40
2022-08-17T04:17:02.853Z,98625.75
2022-08-17T04:19:56.910Z,98625.88
2022-08-17T04:22:56.158Z,98626.84
2022-08-17T04:25:54.054Z,98625.61
2022-08-17T04:28:46.913Z,98629.02
2022-08-17T04:31:39.278Z,98625.48
2022-08-17T04:34:35.411Z,98621.80
2022-08-17T04:37:16.552Z,98620.83
2022-08-17T04:40:28.082Z,98616.84
2022-08-17T04:43:13.445Z,98619.23
2022-08-17T04:46:09.590Z,98612.58
2022-08-17T04:49:03.535Z,98612.81
2022-08-17T04:52:00.122Z,98608.67
2022-08-17T04:54:56.639Z,98613.79
2022-08-17T04:57:45.079Z,98616.25
2022-08-17T05:00:40.003Z,98614.42
2022-08-17T05:03:23.134Z,98618.51
2022-08-17T05:06:18.506Z,98614.20
2022-08-17T05:09:10.980Z,98616.48
2022-08-17T05:11:57.479Z,98618.41
2022-08-17T05:14:43.883Z,98619.58
2022-08-17T05:17:36.016Z,98621.60
2022-08-17T05:20:32.271Z,98622.45
2022-08-17T05:23:36.527Z,98619.52
2022-08-17T05:26:36.441Z,98618.50
2022-08-17T05:29:35.196Z,98624.23
2022-08-17T05:32:38.702Z,98621.83
2022-08-17T05:35:24.495Z,98624.00
2022-08-17T05:38:17.999Z,98629.69
2022-08-17T05:41:11.685Z,98628.60
2022-08-17T05:44:05.422Z,98628.47
2022-08-17T05:47:00.694Z,98634.65
2022-08-17T05:49:53.791Z,98634.70
2022-08-17T05:52:56.187Z,98636.70
2022-08-17T05:55:36.147Z,98635.81
2022-08-17T05:58:32.753Z,98639.52
2022-08-17T06:01:36.652Z,98649.00
2022-08-17T06:04:44.289Z,98651.90
2022-08-17T06:07:22.192Z,98650.11
2022-08-17T06:10:13.634Z,98653.14
2022-08-17T06:13:17.015Z,98647.88
2022-08-17T06:16:33.891Z,98650.98
2022-08-17T06:19:34.656Z,98652.29
2022-08-17T06:22:12.726Z,98649.34
2022-08-17T06:25:10.213Z,98643.40
2022-08-17T06:27:46.501Z,98638.17
2022-08-17T06:30:22.057Z,98642.78
2022-08-17T06:33:05.868Z,98643.89
2022-08-17T06:36:02.739Z,98644.73
2022-08-17T06:38:54.469Z,98644.61
2022-08-17T06:41:39.133Z,98643.87
2022-08-17T06:44:43.402Z,98640.86
2022-08-17T06:47:30.149Z,98641.90
2022-08-17T06:50:10.086Z,98639.61
2022-08-17T06:52:51.035Z,98644.77
2022-08-17T06:55:32.186Z,98643.77
2022-08-17T06:58:15.758Z,98642.73
2022-08-17T07:00:59.327Z,98648.31
2022-08-17T07:03:58.269Z,98643.42
2022-08-17T07:06:46.957Z,98648.10
2022-08-17T07:09:26.776Z,98648.51
2022-08-17T07:12:12.486Z,98647.39
2022-08-17T07:14:54.156Z,98647.58
2022-08-17T07:17:47.978Z,98646.41
2022-08-17T07:20:23.706Z,98652.98
2022-08-17T07:23:02.189Z,98648.67
2022-08-17T07:25:37.630Z,98649.95
2022-08-17T07:28:12.567Z,98649.05
2022-08-17T07:30:51.657Z,98644.70
2022-08-17T07:33:30.343Z,98648.29
2022-08-17T07:39:29.037Z,98647.30
2022-08-17T07:42:07.010Z,98643.71
2022-08-17T07:44:53.952Z,98647.36
2022-08-17T07:47:43.866Z,98639.49
2022-08-17T07:50:30.254Z,98641.79
2022-08-17T07:53:19.074Z,98637.84
2022-08-17T07:55:55.381Z,98635.25
2022-08-17T07:58:27.421Z,98633.66
2022-08-17T08:01:11.208Z,98631.27
2022-08-17T08:03:52.439Z,98631.34
2022-08-17T08:06:27.962Z,98635.50
2022-08-17T08:09:01.258Z,98641.52
2022-08-17T08:11:38.321Z,98643.83
2022-08-17T08:14:31.617Z,98640.40
2022-08-17T08:17:09.308Z,98641.48
2022-08-17T08:19:51.846Z,98642.49
2022-08-17T08:22:41.184Z,98641.96
2022-08-17T08:25:25.354Z,98644.83
2022-08-17T08:28:14.334Z,98645.54
2022-08-17T08:30:51.063Z,98647.71
2022-08-17T08:33:55.044Z,98648.92
2022-08-17T08:37:14.545Z,98649.79
2022-08-17T08:39:44.746Z,98648.64
2022-08-17T08:42:27.619Z,98651.36
2022-08-17T08:45:11.541Z,98649.17
2022-08-17T08:48:00.349Z,98648.80
2022-08-17T08:50:49.546Z,98650.28
2022-08-17T08:53:36.763Z,98649.12
2022-08-17T08:56:17.792Z,98657.46
2022-08-17T08:58:59.473Z,98656.62
2022-08-17T09:01:51.839Z,98655.39
2022-08-17T09:05:13.448Z,98653.50
2022-08-17T09:07:59.419Z,98650.85
2022-08-17T09:10:36.051Z,98645.45
2022-08-17T09:13:14.996Z,98647.05
2022-08-17T09:15:51.265Z,98647.89
2022-08-17T09:19:02.816Z,98645.34
2022-08-17T09:21:27.216Z,98641.80
2022-08-17T09:24:06.259Z,98646.98
2022-08-17T09:26:47.116Z,98657.35
2022-08-17T09:29:25.642Z,98660.39
2022-08-17T09:32:17.577Z,98656.27
2022-08-17T09:34:54.968Z,98654.61
2022-08-17T09:37:33.973Z,98659.54
2022-08-17T09:40:24.516Z,98659.69
2022-08-17T09:43:09.030Z,98661.83
2022-08-17T09:45:58.507Z,98664.42
2022-08-17T09:48:36.949Z,98666.40
2022-08-17T09:51:14.838Z,98666.94
2022-08-17T09:53:47.197Z,98661.67
2022-08-17T09:57:06.026Z,98655.98
2022-08-17T09:59:59.722Z,98651.66
2022-08-17T10:03:01.691Z,98655.86
2022-08-17T10:05:45.646Z,98652.78
2022-08-17T10:08:30.284Z,98652.76
2022-08-17T10:11:12.851Z,98652.22
2022-08-17T10:13:53.200Z,98650.36
2022-08-17T10:16:32.382Z,98649.55
2022-08-17T10:19:14.921Z,98648.88
2022-08-17T10:22:32.313Z,98650.60
2022-08-17T10:25:24.873Z,98651.48
2022-08-17T10:28:09.016Z,98656.98
2022-08-17T10:30:57.981Z,98655.06
2022-08-17T10:33:58.642Z,98659.10
2022-08-17T10:36:49.462Z,98662.13
2022-08-17T10:39:31.029Z,98661.58
2022-08-17T10:42:30.891Z,98660.77
2022-08-17T10:45:16.899Z,98650.78
2022-08-17T10:48:06.055Z,98648.81
2022-08-17T10:50:59.362Z,98648.67
2022-08-17T10:53:58.784Z,98648.46
2022-08-17T10:56:58.052Z,98650.44
2022-08-17T10:59:51.967Z,98647.47
2022-08-17T11:02:31.602Z,98648.05
2022-08-17T11:05:34.271Z,98644.21
2022-08-17T11:08:45.829Z,98646.18
2022-08-17T11:11:54.546Z,98648.21
2022-08-17T11:14:51.799Z,98643.79
2022-08-17T11:17:41.695Z,98641.20
2022-08-17T11:20:46.962Z,98641.71
2022-08-17T11:23:52.528Z,98643.58
2022-08-17T11:26:29.752Z,98637.92
2022-08-17T11:29:03.279Z,98637.27
2022-08-17T11:31:40.195Z,98640.55
2022-08-17T11:34:21.879Z,98640.48
2022-08-17T11:37:12.831Z,98637.34
2022-08-17T11:40:06.088Z,98635.55
2022-08-17T11:43:17.490Z,98633.37
2022-08-17T11:46:04.030Z,98631.05
2022-08-17T11:49:05.877Z,98628.63
2022-08-17T11:51:56.293Z,98625.14
2022-08-17T11:54:45.405Z,98627.90
2022-08-17T11:58:06.138Z,98637.27
2022-08-17T12:00:54.865Z,98639.36
2022-08-17T12:03:58.206Z,98637.87
2022-08-17T12:06:46.094Z,98635.61
2022-08-17T12:09:22.138Z,98639.89
2022-08-17T12:12:12.571Z,98640.53
2022-08-17T12:15:09.998Z,98638.52
2022-08-17T12:17:48.528Z,98636.07
2022-08-17T12:20:27.998Z,98629.26
2022-08-17T12:23:10.726Z,98632.36
2022-08-17T12:25:51.466Z,98627.45
2022-08-17T12:28:27.961Z,98625.48
2022-08-17T12:31:03.585Z,98623.91
2022-08-17T12:33:37.571Z,98630.92
2022-08-17T12:36:20.133Z,98632.13
2022-08-17T12:38:59.615Z,98636.67
2022-08-17T12:41:48.339Z,98636.21
2022-08-17T12:44:25.486Z,98637.38
2022-08-17T12:47:04.743Z,98636.27
2022-08-17T12:49:39.491Z,98640.81
2022-08-17T12:52:19.080Z,98637.23
2022-08-17T12:54:55.694Z,98643.48
2022-08-17T12:57:32.893Z,98651.91
2022-08-17T13:00:17.930Z,98652.22
2022-08-17T13:02:56.899Z,98647.13
2022-08-17T13:05:36.107Z,98643.96
2022-08-17T13:08:18.638Z,98638.27
2022-08-17T13:10:59.548Z,98639.05
2022-08-17T13:13:36.900Z,98641.58
2022-08-17T13:16:17.164Z,98646.03
2022-08-17T13:18:54.581Z,98650.45
2022-08-17T13:21:33.364Z,98650.28
2022-08-17T13:24:17.022Z,98657.01
2022-08-17T13:26:55.756Z,98658.36
2022-08-17T13:29:34.896Z,98656.38
2022-08-17T13:32:23.024Z,98656.86
2022-08-17T13:35:15.315Z,98663.70
2022-08-17T13:37:59.755Z,98664.08
2022-08-17T13:40:42.234Z,98667.82
2022-08-17T13:43:34.838Z,98662.58
2022-08-17T13:46:13.381Z,98666.52
2022-08-17T13:49:04.030Z,98665.70
2022-08-17T13:51:46.874Z,98670.47
2022-08-17T13:54:28.064Z,98667.08
2022-08-17T13:57:03.711Z,98667.19
2022-08-17T13:59:54.546Z,98671.58
2022-08-17T14:02:30.486Z,98665.86
2022-08-17T14:05:06.036Z,98661.80
2022-08-17T14:07:41.154Z,98658.34
2022-08-17T14:10:17.414Z,98660.99
2022-08-17T14:12:59.857Z,98653.20
2022-08-17T14:15:54.809Z,98657.50
2022-08-17T14:18:50.519Z,98650.61
2022-08-17T14:21:19.722Z,98651.30
2022-08-17T14:23:54.673Z,98650.96
2022-08-17T14:26:27.881Z,98648.81
2022-08-17T14:29:02.396Z,98649.96
2022-08-17T14:31:37.516Z,98647.63
2022-08-17T14:34:10.829Z,98643.41
2022-08-17T14:36:48.367Z,98638.69
2022-08-17T14:39:23.494Z,98639.36
2022-08-17T14:41:56.209Z,98637.59
2022-08-17T14:44:28.070Z,98635.38
2022-08-17T14:46:59.932Z,98635.63
2022-08-17T14:49:32.171Z,98632.65
2022-08-17T14:52:04.443Z,98633.03
2022-08-17T14:54:36.132Z,98638.95
2022-08-17T14:57:25.131Z,98640.42
2022-08-17T15:00:00.947Z,98637.86
2022-08-17T15:02:43.783Z,98637.17
2022-08-17T15:05:17.825Z,98632.56
2022-08-17T15:07:49.799Z,98633.38
2022-08-17T15:10:22.283Z,98633.56
2022-08-17T15:12:54.524Z,98630.15
2022-08-17T15:15:27.128Z,98637.49
2022-08-17T15:18:02.595Z,98640.08
2022-08-17T15:20:35.713Z,98646.64
2022-08-17T15:23:09.778Z,98648.27
2022-08-17T15:25:44.867Z,98652.37
2022-08-17T15:28:20.591Z,98655.23
2022-08-17T15:30:53.403Z,98658.52
2022-08-17T15:33:29.905Z,98659.05
2022-08-17T15:36:04.858Z,98663.58
2022-08-17T15:38:39.700Z,98668.27
2022-08-17T15:41:15.283Z,98667.48
2022-08-17T15:43:48.646Z,98665.55
2022-08-17T15:46:24.547Z,98665.58
2022-08-17T15:48:59.067Z,98660.10
2022-08-17T15:51:32.993Z,98661.08
2022-08-17T15:54:18.767Z,98662.88
2022-08-17T15:56:54.405Z,98660.55
2022-08-17T15:59:26.192Z,98662.69
2022-08-17T16:03:14.687Z,98661.73
2022-08-17T16:04:52.062Z,98663.48
2022-08-17T16:07:26.887Z,98672.23
2022-08-17T16:09:58.747Z,98674.59
2022-08-17T16:12:30.824Z,98675.89
2022-08-17T16:15:03.554Z,98678.16
2022-08-17T16:17:39.549Z,98686.10
2022-08-17T16:20:20.134Z,98691.21
2022-08-17T16:22:52.948Z,98694.95
2022-08-17T16:25:52.089Z,98694.64
2022-08-17T16:28:23.502Z,98694.00
2022-08-17T16:31:09.325Z,98697.59
2022-08-17T16:33:41.550Z,98697.02
2022-08-17T16:36:13.326Z,98701.14
2022-08-17T16:38:45.184Z,98703.23
2022-08-17T16:41:37.750Z,98711.79
2022-08-17T16:44:09.664Z,98718.02
2022-08-17T16:46:59.051Z,98725.08
2022-08-17T16:49:36.713Z,98730.75
2022-08-17T16:52:11.465Z,98732.11
2022-08-17T16:54:46.993Z,98732.63
2022-08-17T16:57:19.148Z,98728.83
2022-08-17T16:59:51.549Z,98732.76
2022-08-17T17:02:32.200Z,98738.12
2022-08-17T17:05:09.112Z,98735.13
2022-08-17T17:07:59.287Z,98735.54
2022-08-17T17:10:34.334Z,98737.27
2022-08-17T17:13:09.835Z,98735.45
2022-08-17T17:15:58.945Z,98743.02
2022-08-17T17:18:40.382Z,98744.83
2022-08-17T17:21:20.395Z,98745.18
2022-08-17T17:23:57.279Z,98743.65
2022-08-17T17:26:43.239Z,98750.99
2022-08-17T17:29:29.710Z,98752.27
2022-08-17T17:32:27.343Z,98752.39
2022-08-17T17:35:05.701Z,98754.83
2022-08-17T17:37:39.252Z,98756.48
2022-08-17T17:40:19.192Z,98760.05
2022-08-17T17:42:53.587Z,98763.89
2022-08-17T17:45:38.667Z,98767.16
2022-08-17T17:48:13.039Z,98773.08
2022-08-17T17:50:55.660Z,98775.20
2022-08-17T17:53:35.440Z,98778.55
2022-08-17T17:56:39.824Z,98783.66
2022-08-17T17:59:27.745Z,98787.83
2022-08-17T18:02:35.475Z,98795.81
2022-08-17T18:05:16.513Z,98796.52
2022-08-17T18:07:54.505Z,98796.91
2022-08-17T18:10:34.110Z,98799.65
2022-08-17T18:13:19.450Z,98803.69
2022-08-17T18:15:55.440Z,98807.10
2022-08-17T18:18:44.142Z,98806.61
2022-08-17T18:21:19.534Z,98808.40
2022-08-17T18:23:55.916Z,98809.92
2022-08-17T18:26:41.927Z,98811.46
2022-08-17T18:29:32.466Z,98812.91
2022-08-17T18:32:35.102Z,98814.70
2022-08-17T18:35:28.712Z,98814.86
2022-08-17T18:38:20.907Z,98815.16
2022-08-17T18:41:04.000Z,98816.94
2022-08-17T18:43:53.001Z,98821.84
2022-08-17T18:46:30.157Z,98823.48
2022-08-17T18:49:05.420Z,98821.83
2022-08-17T18:51:42.693Z,98827.11
2022-08-17T18:54:23.680Z,98826.15
2022-08-17T18:56:57.984Z,98823.89
2022-08-17T18:59:36.057Z,98828.33
2022-08-17T19:02:45.979Z,98826.56
2022-08-17T19:05:33.715Z,98829.60
2022-08-17T19:08:19.845Z,98830.66
2022-08-17T19:10:54.360Z,98836.40
2022-08-17T19:13:33.286Z,98841.66
2022-08-17T19:16:14.571Z,98843.52
2022-08-17T19:18:53.835Z,98846.22
2022-08-17T19:21:31.670Z,98843.86
2022-08-17T19:24:06.292Z,98846.19
2022-08-17T19:26:53.953Z,98848.98
2022-08-17T19:29:37.857Z,98849.72
2022-08-17T19:32:14.950Z,98844.67
2022-08-17T19:34:47.918Z,98846.28
2022-08-17T19:37:40.478Z,98846.10
2022-08-17T19:40:50.969Z,98848.26
2022-08-17T19:43:24.423Z,98848.83
2022-08-17T19:46:08.788Z,98849.89
2022-08-17T19:48:53.171Z,98855.29
2022-08-17T19:51:44.782Z,98857.06
2022-08-17T19:54:26.620Z,98857.08
2022-08-17T19:57:05.698Z,98854.48
2022-08-17T19:59:51.327Z,98855.75
2022-08-17T20:02:33.840Z,98857.63
2022-08-17T20:05:11.577Z,98855.22
2022-08-17T20:07:44.718Z,98857.56
2022-08-17T20:10:24.408Z,98858.67
2022-08-17T20:13:03.060Z,98863.46
2022-08-17T20:15:37.923Z,98863.25
2022-08-17T20:18:22.640Z,98862.08
2022-08-17T20:21:03.001Z,98864.24
2022-08-17T20:23:52.200Z,98865.47
2022-08-17T20:26:28.293Z,98870.87
2022-08-17T20:29:37.686Z,98869.30
2022-08-17T20:32:25.610Z,98863.70
2022-08-17T20:35:22.250Z,98863.95
2022-08-17T20:38:02.230Z,98862.49
2022-08-17T20:40:38.360Z,98863.60
2022-08-17T20:43:40.987Z,98865.18
2022-08-17T20:46:39.509Z,98866.73
2022-08-17T20:49:25.342Z,98873.11
2022-08-17T20:52:07.786Z,98874.20
2022-08-17T20:54:53.210Z,98876.55
2022-08-17T20:57:49.104Z,98879.23
2022-08-17T21:00:45.753Z,98877.05
2022-08-17T21:03:52.269Z,98878.92
2022-08-17T21:06:26.468Z,98882.06
2022-08-17T21:09:21.479Z,98880.92
2022-08-17T21:12:05.658Z,98882.45
2022-08-17T21:14:58.721Z,98884.17
2022-08-17T21:17:51.319Z,98886.40
2022-08-17T21:20:35.775Z,98884.59
2022-08-17T21:23:24.910Z,98887.62
2022-08-17T21:26:33.001Z,98889.39
2022-08-17T21:29:31.806Z,98887.19
2022-08-17T21:32:24.578Z,98889.68
2022-08-17T21:35:28.816Z,98891.34
2022-08-17T21:38:06.217Z,98891.30
2022-08-17T21:40:44.706Z,98894.17
2022-08-17T21:43:28.170Z,98892.77
2022-08-17T21:46:05.080Z,98893.80
2022-08-17T21:48:45.104Z,98896.00
2022-08-17T21:51:23.852Z,98895.80
2022-08-17T21:53:57.427Z,98896.01
2022-08-17T21:56:34.046Z,98895.66
2022-08-17T21:59:09.646Z,98897.91
2022-08-17T22:01:45.877Z,98896.01
2022-08-17T22:04:26.101Z,98896.82
2022-08-17T22:06:59.101Z,98896.28
2022-08-17T22:09:32.816Z,98897.27
2022-08-17T22:12:09.208Z,98893.54
2022-08-17T22:14:53.027Z,98900.89
2022-08-17T22:17:27.570Z,98900.60
2022-08-17T22:20:01.466Z,98898.36
2022-08-17T22:22:57.991Z,98893.65
2022-08-17T22:25:32.084Z,98893.73
2022-08-17T22:28:06.521Z,98898.98
2022-08-17T22:30:41.853Z,98903.23
2022-08-17T22:33:37.006Z,98909.83
2022-08-17T22:36:15.250Z,98911.84
2022-08-17T22:38:47.360Z,98911.95
2022-08-17T22:41:44.890Z,98911.70
2022-08-17T22:44:24.223Z,98903.86
2022-08-17T22:47:02.829Z,98901.30
2022-08-17T22:49:53.405Z,98896.86
2022-08-17T22:52:33.132Z,98895.52
2022-08-17T22:55:31.033Z,98893.29
2022-08-17T22:58:30.732Z,98893.09
2022-08-17T23:01:28.261Z,98895.69
2022-08-17T23:03:59.954Z,98890.30
2022-08-17T23:06:33.932Z,98886.64
2022-08-17T23:09:08.116Z,98883.42
2022-08-17T23:11:49.366Z,98883.39
2022-08-17T23:14:23.038Z,98879.15
2022-08-17T23:16:58.264Z,98872.69
2022-08-17T23:19:33.350Z,98868.56
2022-08-17T23:22:09.125Z,98871.58
2022-08-17T23:24:49.064Z,98870.88
2022-08-17T23:27:22.242Z,98871.04
2022-08-17T23:29:57.710Z,98870.87
2022-08-17T23:32:29.784Z,98872.10
2022-08-17T23:35:01.905Z,98871.09
2022-08-17T23:37:33.765Z,98872.48
2022-08-17T23:40:08.607Z,98875.21
2022-08-17T23:42:46.329Z,98876.05
2022-08-17T23:45:19.379Z,98874.67
2022-08-17T23:47:51.189Z,98874.19
2022-08-17T23:50:25.224Z,98872.49
2022-08-17T23:53:03.178Z,98872.76
2022-08-17T23:55:35.554Z,98871.19
2022-08-17T23:58:09.834Z,98869.88
